createdAt,value
2023-04-18T00:01:03.026Z,101619.03
2023-04-18T00:03:30.106Z,101627.63
2023-04-18T00:05:58.055Z,101625.88
2023-04-18T00:08:24.704Z,101621.63
2023-04-18T00:10:51.405Z,101619.03
2023-04-18T00:13:18.430Z,101625.88
2023-04-18T00:15:46.331Z,101619.94
2023-04-18T00:18:16.175Z,101623.38
2023-04-18T00:20:43.160Z,101624.22
2023-04-18T00:23:14.126Z,101624.31
2023-04-18T00:25:40.956Z,101620.91
2023-04-18T00:28:07.645Z,101624.31
2023-04-18T00:30:34.256Z,101626.06
2023-04-18T00:33:01.053Z,101616.66
2023-04-18T00:35:27.624Z,101622.63
2023-04-18T00:37:54.194Z,101621.88
2023-04-18T00:40:20.730Z,101615.94
2023-04-18T00:42:47.403Z,101622.84
2023-04-18T00:45:13.959Z,101616.75
2023-04-18T00:47:40.604Z,101617.47
2023-04-18T00:50:08.293Z,101619.25
2023-04-18T00:52:36.045Z,101620.91
2023-04-18T00:55:06.194Z,101625.22
2023-04-18T00:57:33.236Z,101617.41
2023-04-18T01:00:01.594Z,101615.69
2023-04-18T01:02:31.381Z,101614.88
2023-04-18T01:04:59.503Z,101616.63
2023-04-18T01:07:26.908Z,101622.63
2023-04-18T01:09:54.210Z,101614.09
2023-04-18T01:12:20.870Z,101614.88
2023-04-18T01:14:47.533Z,101613.09
2023-04-18T01:17:14.112Z,101610.47
2023-04-18T01:19:40.869Z,101615.56
2023-04-18T01:22:07.471Z,101610.41
2023-04-18T01:24:34.265Z,101609.28
2023-04-18T01:27:03.029Z,101612.66
2023-04-18T01:29:29.619Z,101613.47
2023-04-18T01:31:56.195Z,101602.03
2023-04-18T01:34:22.973Z,101608.03
2023-04-18T01:36:49.770Z,101610.69
2023-04-18T01:39:18.344Z,101605.53
2023-04-18T01:41:45.031Z,101606.38
2023-04-18T01:44:11.772Z,101604.72
2023-04-18T01:46:38.956Z,101605.56
2023-04-18T01:49:06.525Z,101601.31
2023-04-18T01:51:33.073Z,101608.22
2023-04-18T01:53:59.655Z,101609.06
2023-04-18T01:56:26.229Z,101596.13
2023-04-18T01:58:52.819Z,101599.50
2023-04-18T02:01:19.665Z,101596.03
2023-04-18T02:03:46.912Z,101592.56
2023-04-18T02:06:13.592Z,101597.59
2023-04-18T02:08:40.366Z,101599.34
2023-04-18T02:11:07.075Z,101595.84
2023-04-18T02:13:33.661Z,101598.47
2023-04-18T02:16:00.278Z,101599.34
2023-04-18T02:18:27.249Z,101596.81
2023-04-18T02:20:53.889Z,101588.94
2023-04-18T02:23:20.495Z,101596.66
2023-04-18T02:25:47.021Z,101589.03
2023-04-18T02:28:13.648Z,101593.41
2023-04-18T02:30:40.283Z,101590.81
2023-04-18T02:33:06.908Z,101589.03
2023-04-18T02:35:33.549Z,101589.03
2023-04-18T02:38:00.412Z,101596.66
2023-04-18T02:40:26.973Z,101600.03
2023-04-18T02:42:53.475Z,101596.56
2023-04-18T02:45:20.113Z,101599.16
2023-04-18T02:47:54.777Z,101601.88
2023-04-18T02:50:23.185Z,101600.09
2023-04-18T02:52:49.817Z,101606.94
2023-04-18T02:55:16.560Z,101595.59
2023-04-18T02:57:43.183Z,101598.13
2023-04-18T03:00:10.216Z,101587.81
2023-04-18T03:02:36.886Z,101589.47
2023-04-18T03:05:03.796Z,101590.09
2023-04-18T03:07:31.109Z,101588.44
2023-04-18T03:09:57.863Z,101591.97
2023-04-18T03:12:24.568Z,101592.69
2023-04-18T03:14:51.272Z,101595.31
2023-04-18T03:17:18.364Z,101600.44
2023-04-18T03:19:46.489Z,101604.66
2023-04-18T03:22:14.041Z,101601.06
2023-04-18T03:24:40.657Z,101596.72
2023-04-18T03:27:07.396Z,101589.75
2023-04-18T03:29:34.230Z,101587.22
2023-04-18T03:32:00.906Z,101585.56
2023-04-18T03:34:27.638Z,101595.00
2023-04-18T03:36:54.348Z,101594.22
2023-04-18T03:39:20.960Z,101595.84
2023-04-18T03:41:47.562Z,101593.22
2023-04-18T03:44:14.542Z,101593.22
2023-04-18T03:46:41.601Z,101602.34
2023-04-18T03:49:08.358Z,101593.78
2023-04-18T03:51:43.654Z,101592.03
2023-04-18T03:54:10.203Z,101594.66
2023-04-18T03:56:36.848Z,101587.66
2023-04-18T03:59:03.420Z,101599.81
2023-04-18T04:01:30.094Z,101599.94
2023-04-18T04:03:56.765Z,101597.41
2023-04-18T04:06:23.444Z,101599.88
2023-04-18T04:08:50.039Z,101596.53
2023-04-18T04:11:17.634Z,101593.09
2023-04-18T04:13:44.205Z,101594.78
2023-04-18T04:16:10.840Z,101593.09
2023-04-18T04:18:37.431Z,101598.31
2023-04-18T04:21:05.304Z,101598.38
2023-04-18T04:23:31.842Z,101593.25
2023-04-18T04:25:59.314Z,101589.91
2023-04-18T04:28:26.340Z,101591.66
2023-04-18T04:30:53.306Z,101591.66
2023-04-18T04:33:21.455Z,101584.84
2023-04-18T04:35:48.234Z,101585.63
2023-04-18T04:38:15.428Z,101590.78
2023-04-18T04:40:42.613Z,101582.25
2023-04-18T04:43:15.437Z,101576.25
2023-04-18T04:45:43.186Z,101585.81
2023-04-18T04:48:11.103Z,101588.44
2023-04-18T04:50:38.926Z,101585.84
2023-04-18T04:53:06.485Z,101590.84
2023-04-18T04:55:33.742Z,101591.59
2023-04-18T04:58:00.751Z,101594.84
2023-04-18T05:00:28.849Z,101593.00
2023-04-18T05:02:57.713Z,101582.69
2023-04-18T05:05:24.515Z,101581.59
2023-04-18T05:07:51.114Z,101577.34
2023-04-18T05:10:17.793Z,101582.50
2023-04-18T05:12:44.489Z,101578.78
2023-04-18T05:15:11.337Z,101584.69
2023-04-18T05:17:37.918Z,101573.53
2023-04-18T05:20:05.729Z,101576.94
2023-04-18T05:22:32.567Z,101575.25
2023-04-18T05:24:59.121Z,101596.00
2023-04-18T05:27:26.180Z,101584.69
2023-04-18T05:29:52.980Z,101589.00
2023-04-18T05:32:19.987Z,101592.50
2023-04-18T05:34:46.997Z,101593.47
2023-04-18T05:37:13.712Z,101592.72
2023-04-18T05:39:40.934Z,101598.69
2023-04-18T05:42:07.570Z,101584.81
2023-04-18T05:44:34.144Z,101597.75
2023-04-18T05:47:01.085Z,101600.28
2023-04-18T05:49:27.723Z,101602.00
2023-04-18T05:51:54.303Z,101602.81
2023-04-18T05:54:21.890Z,101606.22
2023-04-18T05:56:48.464Z,101606.94
2023-04-18T05:59:15.228Z,101607.00
2023-04-18T06:01:41.856Z,101601.06
2023-04-18T06:04:08.828Z,101601.28
2023-04-18T06:06:36.264Z,101601.28
2023-04-18T06:09:03.030Z,101605.56
2023-04-18T06:11:29.725Z,101601.91
2023-04-18T06:13:56.249Z,101604.47
2023-04-18T06:16:23.091Z,101601.16
2023-04-18T06:18:49.651Z,101600.50
2023-04-18T06:21:16.243Z,101602.19
2023-04-18T06:23:42.816Z,101597.88
2023-04-18T06:26:09.634Z,101596.31
2023-04-18T06:28:36.185Z,101598.38
2023-04-18T06:31:02.940Z,101600.50
2023-04-18T06:33:29.503Z,101599.06
2023-04-18T06:35:56.148Z,101610.31
2023-04-18T06:38:22.946Z,101605.09
2023-04-18T06:40:49.451Z,101607.72
2023-04-18T06:43:16.118Z,101610.31
2023-04-18T06:45:42.814Z,101614.63
2023-04-18T06:48:10.803Z,101606.94
2023-04-18T06:50:37.483Z,101613.09
2023-04-18T06:53:04.029Z,101617.16
2023-04-18T06:55:31.009Z,101614.06
2023-04-18T06:57:57.595Z,101628.09
2023-04-18T07:00:24.095Z,101612.00
2023-04-18T07:02:50.870Z,101616.09
2023-04-18T07:05:17.600Z,101610.19
2023-04-18T07:07:44.201Z,101608.34
2023-04-18T07:10:11.524Z,101610.72
2023-04-18T07:12:38.298Z,101614.91
2023-04-18T07:15:05.259Z,101615.16
2023-04-18T07:17:31.977Z,101615.59
2023-04-18T07:19:58.806Z,101613.56
2023-04-18T07:22:26.401Z,101604.19
2023-04-18T07:24:53.022Z,101609.41
2023-04-18T07:27:19.574Z,101609.72
2023-04-18T07:29:46.096Z,101614.31
2023-04-18T07:32:13.848Z,101617.00
2023-04-18T07:34:40.481Z,101611.63
2023-04-18T07:37:07.763Z,101615.72
2023-04-18T07:39:36.153Z,101611.50
2023-04-18T07:42:07.764Z,101615.75
2023-04-18T07:44:35.863Z,101618.84
2023-04-18T07:47:02.799Z,101606.31
2023-04-18T07:49:29.365Z,101610.16
2023-04-18T07:51:56.052Z,101609.47
2023-04-18T07:54:22.974Z,101609.59
2023-04-18T07:56:49.518Z,101615.78
2023-04-18T07:59:16.563Z,101612.38
2023-04-18T08:01:43.380Z,101609.72
2023-04-18T08:04:10.243Z,101612.50
2023-04-18T08:06:36.936Z,101609.16
2023-04-18T08:09:05.595Z,101600.50
2023-04-18T08:11:33.327Z,101607.59
2023-04-18T08:14:00.002Z,101607.72
2023-04-18T08:16:26.879Z,101603.44
2023-04-18T08:18:53.437Z,101613.03
2023-04-18T08:21:20.399Z,101609.53
2023-04-18T08:23:47.136Z,101614.72
2023-04-18T08:26:15.122Z,101621.59
2023-04-18T08:28:42.245Z,101605.84
2023-04-18T08:31:12.875Z,101610.91
2023-04-18T08:33:39.705Z,101609.34
2023-04-18T08:36:07.980Z,101599.88
2023-04-18T08:38:34.636Z,101607.72
2023-04-18T08:41:03.651Z,101599.06
2023-04-18T08:43:31.336Z,101606.06
2023-04-18T08:45:59.490Z,101602.47
2023-04-18T08:48:28.416Z,101610.16
2023-04-18T08:50:59.557Z,101595.38
2023-04-18T08:53:27.129Z,101598.13
2023-04-18T08:55:56.794Z,101600.75
2023-04-18T08:58:24.452Z,101595.50
2023-04-18T09:00:54.147Z,101595.50
2023-04-18T09:03:39.760Z,101591.06
2023-04-18T09:06:10.636Z,101593.59
2023-04-18T09:08:37.194Z,101589.13
2023-04-18T09:11:26.245Z,101594.28
2023-04-18T09:13:53.354Z,101594.16
2023-04-18T09:16:22.486Z,101591.44
2023-04-18T09:19:11.189Z,101584.47
2023-04-18T09:21:41.289Z,101578.28
2023-04-18T09:24:20.751Z,101586.03
2023-04-18T09:26:50.045Z,101581.31
2023-04-18T09:29:18.643Z,101583.63
2023-04-18T09:32:01.997Z,101580.03
2023-04-18T09:34:29.180Z,101564.31
2023-04-18T09:37:13.698Z,101571.47
2023-04-18T09:39:45.034Z,101572.47
2023-04-18T09:42:12.613Z,101564.59
2023-04-18T09:44:58.725Z,101566.97
2023-04-18T09:47:27.886Z,101571.53
2023-04-18T09:49:54.579Z,101562.97
2023-04-18T09:52:26.513Z,101556.06
2023-04-18T09:54:58.645Z,101561.44
2023-04-18T09:57:29.900Z,101554.47
2023-04-18T10:00:13.959Z,101547.38
2023-04-18T10:02:48.571Z,101544.59
2023-04-18T10:05:15.812Z,101536.78
2023-04-18T10:07:45.168Z,101544.69
2023-04-18T10:10:12.448Z,101526.44
2023-04-18T10:12:41.125Z,101520.38
2023-04-18T10:15:09.851Z,101515.16
2023-04-18T10:18:04.193Z,101517.00
2023-04-18T10:20:33.148Z,101519.63
2023-04-18T10:23:00.008Z,101507.44
2023-04-18T10:28:10.061Z,101495.03
2023-04-18T10:38:46.192Z,101487.56
2023-04-18T10:44:14.625Z,101483.94
2023-04-18T10:49:26.388Z,101474.53
2023-04-18T10:51:58.742Z,101475.44
2023-04-18T10:54:51.992Z,101495.50
2023-04-18T10:57:18.531Z,101460.53
2023-04-18T10:59:49.304Z,101469.34
2023-04-18T11:02:25.828Z,101472.91
2023-04-18T11:04:54.912Z,101466.69
2023-04-18T11:07:43.213Z,101470.94
2023-04-18T11:10:09.978Z,101459.53
2023-04-18T11:12:38.906Z,101471.75
2023-04-18T11:15:21.929Z,101456.03
2023-04-18T11:20:49.043Z,101458.97
2023-04-18T11:23:18.250Z,101460.72
2023-04-18T11:25:45.466Z,101471.19
2023-04-18T11:28:13.897Z,101468.59
2023-04-18T11:30:42.152Z,101472.97
2023-04-18T11:33:11.295Z,101463.34
2023-04-18T11:35:39.699Z,101468.56
2023-04-18T11:38:09.674Z,101460.75
2023-04-18T11:40:37.336Z,101453.88
2023-04-18T11:43:06.173Z,101456.38
2023-04-18T11:45:33.189Z,101444.19
2023-04-18T11:48:00.990Z,101455.56
2023-04-18T11:50:27.787Z,101449.47
2023-04-18T11:52:56.574Z,101450.34
2023-04-18T11:55:25.461Z,101446.00
2023-04-18T11:57:55.263Z,101439.88
2023-04-18T12:00:39.793Z,101425.91
2023-04-18T12:03:15.675Z,101424.97
2023-04-18T12:05:43.128Z,101424.97
2023-04-18T12:10:48.373Z,101438.84
2023-04-18T12:13:15.180Z,101428.44
2023-04-18T12:15:44.643Z,101425.81
2023-04-18T12:18:14.152Z,101424.94
2023-04-18T12:23:40.083Z,101417.22
2023-04-18T12:26:07.420Z,101426.06
2023-04-18T12:28:35.245Z,101424.28
2023-04-18T12:31:02.241Z,101414.72
2023-04-18T12:33:28.895Z,101414.75
2023-04-18T12:35:56.090Z,101411.28
2023-04-18T12:38:24.086Z,101417.31
2023-04-18T12:40:52.384Z,101417.34
2023-04-18T12:43:19.515Z,101420.09
2023-04-18T12:45:47.095Z,101420.00
2023-04-18T12:48:14.011Z,101419.13
2023-04-18T12:50:40.780Z,101413.84
2023-04-18T12:53:07.412Z,101415.63
2023-04-18T12:55:34.163Z,101413.97
2023-04-18T12:58:00.887Z,101410.53
2023-04-18T13:00:31.299Z,101407.09
2023-04-18T13:02:58.804Z,101412.25
2023-04-18T13:05:29.883Z,101412.22
2023-04-18T13:08:15.436Z,101396.50
2023-04-18T13:10:43.429Z,101398.19
2023-04-18T13:13:10.842Z,101388.56
2023-04-18T13:15:38.541Z,101396.41
2023-04-18T13:18:06.715Z,101396.34
2023-04-18T13:20:34.437Z,101388.47
2023-04-18T13:23:02.788Z,101388.56
2023-04-18T13:25:29.447Z,101384.22
2023-04-18T13:27:57.495Z,101366.78
2023-04-18T13:30:24.117Z,101386.03
2023-04-18T13:32:50.840Z,101387.72
2023-04-18T13:35:18.565Z,101386.00
2023-04-18T13:37:46.133Z,101386.03
2023-04-18T13:40:13.042Z,101380.84
2023-04-18T13:42:39.587Z,101387.88
2023-04-18T13:45:07.337Z,101397.50
2023-04-18T13:47:34.473Z,101375.69
2023-04-18T13:50:01.172Z,101383.47
2023-04-18T13:52:27.852Z,101378.28
2023-04-18T13:54:55.956Z,101379.22
2023-04-18T13:57:23.210Z,101360.91
2023-04-18T13:59:49.945Z,101375.78
2023-04-18T14:02:16.740Z,101371.38
2023-04-18T14:04:43.548Z,101372.34
2023-04-18T14:07:10.743Z,101377.72
2023-04-18T14:09:37.361Z,101378.59
2023-04-18T14:12:04.202Z,101379.50
2023-04-18T14:14:30.837Z,101365.63
2023-04-18T14:16:57.479Z,101359.41
2023-04-18T14:19:24.094Z,101369.84
2023-04-18T14:21:50.887Z,101363.72
2023-04-18T14:24:17.646Z,101354.91
2023-04-18T14:26:44.191Z,101361.94
2023-04-18T14:29:11.185Z,101368.88
2023-04-18T14:31:38.140Z,101356.69
2023-04-18T14:34:05.660Z,101387.25
2023-04-18T14:36:32.753Z,101360.31
2023-04-18T14:38:59.443Z,101356.88
2023-04-18T14:41:26.255Z,101351.72
2023-04-18T14:43:52.951Z,101358.66
2023-04-18T14:46:21.228Z,101358.66
2023-04-18T14:48:47.943Z,101350.88
2023-04-18T14:51:16.205Z,101358.72
2023-04-18T14:53:43.014Z,101355.25
2023-04-18T14:56:09.879Z,101350.91
2023-04-18T14:58:36.481Z,101351.81
2023-04-18T15:01:04.999Z,101354.47
2023-04-18T15:03:32.029Z,101351.00
2023-04-18T15:05:59.488Z,101346.69
2023-04-18T15:08:26.133Z,101354.53
2023-04-18T15:10:52.678Z,101344.97
2023-04-18T15:13:19.517Z,101353.69
2023-04-18T15:15:54.899Z,101344.09
2023-04-18T15:18:22.093Z,101346.69
2023-04-18T15:20:48.817Z,101341.50
2023-04-18T15:23:15.666Z,101344.97
2023-04-18T15:25:44.283Z,101346.72
2023-04-18T15:28:13.283Z,101346.69
2023-04-18T15:30:40.059Z,101331.06
2023-04-18T15:33:06.710Z,101337.13
2023-04-18T15:35:33.277Z,101334.53
2023-04-18T15:37:59.851Z,101336.25
2023-04-18T15:40:26.425Z,101334.53
2023-04-18T15:42:54.309Z,101324.94
2023-04-18T15:45:21.424Z,101339.72
2023-04-18T15:47:48.373Z,101325.78
2023-04-18T15:50:16.278Z,101308.41
2023-04-18T15:52:43.429Z,101330.16
2023-04-18T15:55:13.214Z,101326.66
2023-04-18T15:57:40.066Z,101332.69
2023-04-18T16:00:12.123Z,101329.22
2023-04-18T16:02:38.914Z,101325.78
2023-04-18T16:05:05.966Z,101334.44
2023-04-18T16:07:32.504Z,101313.59
2023-04-18T16:09:59.142Z,101314.47
2023-04-18T16:12:25.756Z,101318.84
2023-04-18T16:14:52.299Z,101311.88
2023-04-18T16:17:18.837Z,101312.75
2023-04-18T16:19:45.544Z,101310.16
2023-04-18T16:22:12.488Z,101308.41
2023-04-18T16:24:40.447Z,101307.53
2023-04-18T16:27:08.697Z,101303.16
2023-04-18T16:29:35.480Z,101307.47
2023-04-18T16:32:02.119Z,101308.31
2023-04-18T16:34:28.703Z,101307.47
2023-04-18T16:36:55.723Z,101306.63
2023-04-18T16:39:22.398Z,101317.00
2023-04-18T16:41:48.971Z,101297.84
2023-04-18T16:44:15.902Z,101315.22
2023-04-18T16:46:42.917Z,101318.66
2023-04-18T16:49:09.558Z,101312.56
2023-04-18T16:51:37.394Z,101302.81
2023-04-18T16:54:04.838Z,101303.69
2023-04-18T16:56:31.563Z,101300.19
2023-04-18T16:58:58.814Z,101308.78
2023-04-18T17:01:25.602Z,101316.56
2023-04-18T17:03:52.308Z,101323.47
2023-04-18T17:06:19.491Z,101316.41
2023-04-18T17:08:46.248Z,101320.75
2023-04-18T17:11:12.815Z,101325.13
2023-04-18T17:13:39.363Z,101319.88
2023-04-18T17:16:07.622Z,101327.72
2023-04-18T17:18:34.217Z,101322.41
2023-04-18T17:21:00.862Z,101326.69
2023-04-18T17:23:27.569Z,101324.09
2023-04-18T17:25:54.126Z,101318.00
2023-04-18T17:28:21.359Z,101320.63
2023-04-18T17:30:48.015Z,101323.22
2023-04-18T17:33:14.568Z,101324.88
2023-04-18T17:35:41.665Z,101307.53
2023-04-18T17:38:10.636Z,101314.38
2023-04-18T17:40:37.330Z,101309.16
2023-04-18T17:43:03.859Z,101314.34
2023-04-18T17:45:30.491Z,101310.88
2023-04-18T17:47:58.297Z,101310.75
2023-04-18T17:50:25.110Z,101314.19
2023-04-18T17:52:51.803Z,101320.09
2023-04-18T17:55:18.482Z,101312.28
2023-04-18T17:57:45.309Z,101324.41
2023-04-18T18:00:13.803Z,101312.09
2023-04-18T18:02:42.427Z,101319.06
2023-04-18T18:05:13.460Z,101324.16
2023-04-18T18:07:42.969Z,101316.34
2023-04-18T18:10:10.456Z,101327.47
2023-04-18T18:12:38.149Z,101311.84
2023-04-18T18:15:05.376Z,101318.63
2023-04-18T18:17:31.947Z,101323.72
2023-04-18T18:19:58.577Z,101322.88
2023-04-18T18:22:26.155Z,101321.06
2023-04-18T18:24:52.972Z,101318.44
2023-04-18T18:27:20.364Z,101337.41
2023-04-18T18:29:48.094Z,101327.84
2023-04-18T18:32:14.722Z,101329.59
2023-04-18T18:34:41.324Z,101320.00
2023-04-18T18:37:07.917Z,101320.69
2023-04-18T18:39:34.511Z,101324.94
2023-04-18T18:42:01.705Z,101321.41
2023-04-18T18:44:28.464Z,101331.75
2023-04-18T18:46:56.497Z,101324.69
2023-04-18T18:49:23.102Z,101335.00
2023-04-18T18:51:49.615Z,101338.31
2023-04-18T18:54:16.302Z,101330.50
2023-04-18T18:56:44.224Z,101339.81
2023-04-18T18:59:11.458Z,101338.00
2023-04-18T19:01:38.078Z,101327.56
2023-04-18T19:04:05.252Z,101341.34
2023-04-18T19:06:32.193Z,101335.25
2023-04-18T19:08:59.109Z,101340.19
2023-04-18T19:11:26.789Z,101339.38
2023-04-18T19:13:53.952Z,101349.63
2023-04-18T19:16:20.583Z,101345.97
2023-04-18T19:18:49.155Z,101350.94
2023-04-18T19:21:16.468Z,101354.28
2023-04-18T19:23:43.278Z,101366.22
2023-04-18T19:26:10.282Z,101355.72
2023-04-18T19:28:36.880Z,101357.28
2023-04-18T19:31:03.740Z,101360.56
2023-04-18T19:33:30.366Z,101368.19
2023-04-18T19:35:56.936Z,101358.69
2023-04-18T19:38:23.555Z,101366.34
2023-04-18T19:40:50.137Z,101368.78
2023-04-18T19:43:16.677Z,101370.44
2023-04-18T19:45:43.357Z,101379.06
2023-04-18T19:48:09.956Z,101379.75
2023-04-18T19:50:39.432Z,101378.72
2023-04-18T19:53:06.260Z,101377.84
2023-04-18T19:55:32.801Z,101382.88
2023-04-18T19:57:59.989Z,101377.56
2023-04-18T20:00:27.000Z,101383.41
2023-04-18T20:02:54.438Z,101385.00
2023-04-18T20:05:21.372Z,101382.31
2023-04-18T20:07:48.232Z,101381.34
2023-04-18T20:10:14.838Z,101390.72
2023-04-18T20:12:41.464Z,101389.78
2023-04-18T20:15:08.655Z,101384.69
2023-04-18T20:17:35.488Z,101382.13
2023-04-18T20:20:02.234Z,101398.31
2023-04-18T20:22:28.786Z,101400.13
2023-04-18T20:24:57.789Z,101391.53
2023-04-18T20:27:24.464Z,101392.25
2023-04-18T20:29:51.018Z,101393.22
2023-04-18T20:32:17.601Z,101389.75
2023-04-18T20:34:45.758Z,101396.56
2023-04-18T20:37:15.483Z,101393.06
2023-04-18T20:39:42.112Z,101396.56
2023-04-18T20:42:14.184Z,101393.13
2023-04-18T20:44:43.208Z,101387.88
2023-04-18T20:47:09.805Z,101398.13
2023-04-18T20:49:36.427Z,101392.88
2023-04-18T20:52:03.061Z,101388.72
2023-04-18T20:54:29.634Z,101404.16
2023-04-18T20:56:56.204Z,101395.41
2023-04-18T20:59:22.780Z,101390.25
2023-04-18T21:01:49.384Z,101404.03
2023-04-18T21:04:16.492Z,101403.22
2023-04-18T21:06:43.227Z,101409.28
2023-04-18T21:09:09.781Z,101408.47
2023-04-18T21:11:36.338Z,101421.44
2023-04-18T21:14:05.736Z,101409.41
2023-04-18T21:16:32.738Z,101404.91
2023-04-18T21:18:59.532Z,101405.00
2023-04-18T21:21:26.094Z,101409.28
2023-04-18T21:23:52.658Z,101411.06
2023-04-18T21:26:19.210Z,101414.38
2023-04-18T21:28:56.292Z,101412.75
2023-04-18T21:31:23.446Z,101403.31
2023-04-18T21:33:54.133Z,101403.38
2023-04-18T21:36:20.998Z,101405.13
2023-04-18T21:38:47.691Z,101408.47
2023-04-18T21:41:16.168Z,101401.56
2023-04-18T21:43:43.454Z,101396.47
2023-04-18T21:46:11.884Z,101389.41
2023-04-18T21:48:41.045Z,101403.22
2023-04-18T21:51:09.690Z,101402.41
2023-04-18T21:53:37.699Z,101400.59
2023-04-18T21:56:04.955Z,101397.25
2023-04-18T21:58:31.924Z,101400.69
2023-04-18T22:00:58.555Z,101392.88
2023-04-18T22:03:27.586Z,101397.19
2023-04-18T22:05:56.607Z,101394.63
2023-04-18T22:08:25.864Z,101391.16
2023-04-18T22:10:56.055Z,101390.13
2023-04-18T22:13:22.592Z,101388.16
2023-04-18T22:15:49.944Z,101380.50
2023-04-18T22:18:16.526Z,101392.75
2023-04-18T22:20:43.326Z,101397.03
2023-04-18T22:23:10.707Z,101391.00
2023-04-18T22:25:37.469Z,101390.16
2023-04-18T22:28:04.704Z,101396.09
2023-04-18T22:30:31.999Z,101395.06
2023-04-18T22:32:59.328Z,101396.84
2023-04-18T22:35:26.850Z,101387.53
2023-04-18T22:37:53.492Z,101389.16
2023-04-18T22:40:20.414Z,101399.66
2023-04-18T22:42:47.001Z,101400.41
2023-04-18T22:45:13.716Z,101403.09
2023-04-18T22:47:40.579Z,101403.09
2023-04-18T22:50:08.011Z,101399.66
2023-04-18T22:52:34.699Z,101392.84
2023-04-18T22:55:03.297Z,101396.09
2023-04-18T22:57:29.904Z,101391.91
2023-04-18T22:59:56.497Z,101400.38
2023-04-18T23:02:23.309Z,101399.56
2023-04-18T23:04:50.655Z,101385.00
2023-04-18T23:07:17.359Z,101395.25
2023-04-18T23:09:43.876Z,101387.50
2023-04-18T23:12:10.464Z,101390.13
2023-04-18T23:14:37.052Z,101394.41
2023-04-18T23:17:03.700Z,101385.84
2023-04-18T23:19:30.314Z,101384.06
2023-04-18T23:21:56.898Z,101383.25
2023-04-18T23:24:23.417Z,101388.44
2023-04-18T23:26:49.972Z,101385.84
2023-04-18T23:29:16.572Z,101384.06
2023-04-18T23:31:43.430Z,101377.31
2023-04-18T23:34:10.693Z,101383.25
2023-04-18T23:36:37.409Z,101378.97
2023-04-18T23:39:04.380Z,101380.59
2023-04-18T23:41:30.993Z,101381.44
2023-04-18T23:43:57.673Z,101377.16
2023-04-18T23:46:24.295Z,101383.22
2023-04-18T23:48:51.058Z,101373.81
2023-04-18T23:51:17.877Z,101373.81
2023-04-18T23:53:44.533Z,101378.81
2023-04-18T23:56:11.047Z,101374.66
2023-04-18T23:58:37.610Z,101382.50
